Time;durP1;ratioP1;P1;durP2;ratioP2;P2;SDS_P1;SDS_P2;PMS_P1;PMS_P2;Temp;Humidity;BMP_temperature;BMP_pressure;BME280_temperature;BME280_humidity;BME280_pressure;Samples;Min_cycle;Max_cycle;Signal;HPM_P1;HPM_P2
2022/09/21 00:00:03;;;;;;;;;;;;;;;;;;348765;28;830;-64
2022/09/21 00:00:14;;;;;;;;;;;;;;;;;;348665;28;821;-64
2022/09/21 00:00:25;;;;;;;;;;;;;;;;;;348788;28;893;-64
2022/09/21 00:00:36;;;;;;;;;;;;;;;;;;348811;28;957;-64
2022/09/21 00:00:46;;;;;;;;;;;;;;;;;;348609;28;924;-64
2022/09/21 00:01:11;;;;;;;;;;;;;;;;;;348721;28;988;-64
2022/09/21 00:01:28;;;;;;;;;;;;;;;;;;348671;28;964;-64
2022/09/21 00:01:38;;;;;;;;;;;;;;;;;;348708;28;897;-64
2022/09/21 00:01:49;;;;;;;;;;;;;;;;;;348754;28;767;-64
2022/09/21 00:01:59;;;;;;;;;;;;;;;;;;348741;28;778;-64
2022/09/21 00:02:09;;;;;;;;;;;;;;;;;;348720;28;888;-64
2022/09/21 00:02:19;;;;;;;;;;;;;;;;;;348722;28;916;-64
2022/09/21 00:02:29;;;;;;;;;;;;;;;;;;348753;28;960;-64
2022/09/21 00:02:40;;;;;;;;;;;;;;;;;;348747;28;834;-64
2022/09/21 00:02:50;;;;;;;;;;;;;;;;;;348701;28;863;-64
2022/09/21 00:03:01;;;;;;;;;;;;;;;;;;348634;28;988;-64
2022/09/21 00:03:12;;;;;;;;;;;;;;;;;;348717;28;898;-64
2022/09/21 00:03:23;;;;;;;;;;;;;;;;;;348757;28;876;-64
2022/09/21 00:03:33;;;;;;;;;;;;;;;;;;348677;28;904;-64
2022/09/21 00:03:44;;;;;;;;;;;;;;;;;;348718;28;885;-64
2022/09/21 00:03:58;;;;;;;;;;;;;;;;;;348702;28;975;-64
2022/09/21 00:04:09;;;;;;;;;;;;;;;;;;348663;28;905;-64
2022/09/21 00:04:19;;;;;;;;;;;;;;;;;;348725;28;968;-64
2022/09/21 00:04:30;;;;;;;;;;;;;;;;;;348659;28;892;-64
2022/09/21 00:04:40;;;;;;;;;;;;;;;;;;348735;28;892;-64
2022/09/21 00:04:50;;;;;;;;;;;;;;;;;;348733;28;821;-64
2022/09/21 00:05:00;;;;;;;;;;;;;;;;;;348623;28;955;-64
2022/09/21 00:05:10;;;;;;;;;;;;;;;;;;348621;28;1106;-64
2022/09/21 00:05:21;;;;;;;;;;;;;;;;;;348678;28;1012;-64
2022/09/21 00:05:31;;;;;;;;;;;;;;;;;;348532;28;1384;-64
2022/09/21 00:05:42;;;;;;;;;;;;;;;;;;348613;28;933;-64
2022/09/21 00:06:00;;;;;;;;;;;;;;;;;;348627;28;790;-64
2022/09/21 00:06:15;;;;;;;;;;;;;;;;;;348550;28;920;-64
2022/09/21 00:06:26;;;;;;;;;;;;;;;;;;348651;28;1304;-64
2022/09/21 00:06:37;;;;;;;;;;;;;;;;;;348600;28;873;-64
2022/09/21 00:06:47;;;;;;;;;;;;;;;;;;348634;28;995;-64
2022/09/21 00:06:57;;;;;;;;;;;;;;;;;;348581;28;869;-64
2022/09/21 00:07:08;;;;;;;;;;;;;;;;;;348500;28;936;-64
2022/09/21 00:07:18;;;;;;;;;;;;;;;;;;348615;28;963;-64
2022/09/21 00:07:28;;;;;;;;;;;;;;;;;;348676;28;932;-64
2022/09/21 00:07:38;;;;;;;;;;;;;;;;;;348692;28;857;-64
2022/09/21 00:07:49;;;;;;;;;;;;;;;;;;348746;28;1445;-64
2022/09/21 00:08:03;;;;;;;;;;;;;;;;;;350064;28;837;-64
2022/09/21 00:08:14;;;;;;;;;;;;;;;;;;350040;28;803;-64
2022/09/21 00:08:24;;;;;;;;;;;;;;;;;;350114;28;904;-64
2022/09/21 00:08:34;;;;;;;;;;;;;;;;;;350157;28;971;-65
2022/09/21 00:08:45;;;;;;;;;;;;;;;;;;350032;28;841;-64
2022/09/21 00:08:55;;;;;;;;;;;;;;;;;;350078;28;983;-64
2022/09/21 00:09:07;;;;;;;;;;;;;;;;;;350094;28;908;-64
2022/09/21 00:09:17;;;;;;;;;;;;;;;;;;349912;28;968;-64
2022/09/21 00:09:27;;;;;;;;;;;;;;;;;;350146;28;920;-64
2022/09/21 00:09:37;;;;;;;;;;;;;;;;;;350045;28;904;-64
2022/09/21 00:09:48;;;;;;;;;;;;;;;;;;350094;28;983;-64
2022/09/21 00:09:58;;;;;;;;;;;;;;;;;;350059;28;940;-64
2022/09/21 00:10:08;;;;;;;;;;;;;;;;;;350091;28;908;-64
2022/09/21 00:10:20;;;;;;;;;;;;;;;;;;350109;28;931;-64
2022/09/21 00:10:30;;;;;;;;;;;;;;;;;;350007;28;963;-64
2022/09/21 00:10:40;;;;;;;;;;;;;;;;;;350110;28;770;-64
2022/09/21 00:10:51;;;;;;;;;;;;;;;;;;350118;28;892;-64
2022/09/21 00:11:03;;;;;;;;;;;;;;;;;;350019;28;1005;-64
2022/09/21 00:11:25;;;;;;;;;;;;;;;;;;349980;28;979;-64
2022/09/21 00:11:35;;;;;;;;;;;;;;;;;;350013;28;928;-64
2022/09/21 00:11:45;;;;;;;;;;;;;;;;;;350088;28;798;-64
2022/09/21 00:11:56;;;;;;;;;;;;;;;;;;350145;28;988;-64
2022/09/21 00:12:06;;;;;;;;;;;;;;;;;;350054;28;770;-64
2022/09/21 00:12:18;;;;;;;;;;;;;;;;;;350107;28;959;-64
2022/09/21 00:12:30;;;;;;;;;;;;;;;;;;350127;28;864;-64
2022/09/21 00:12:40;;;;;;;;;;;;;;;;;;350046;28;829;-64
2022/09/21 00:12:50;;;;;;;;;;;;;;;;;;350122;28;952;-64
2022/09/21 00:13:03;;;;;;;;;;;;;;;;;;350101;28;971;-64
2022/09/21 00:13:14;;;;;;;;;;;;;;;;;;350088;28;932;-64
2022/09/21 00:13:27;;;;;;;;;;;;;;;;;;349884;28;1965;-64
2022/09/21 00:13:37;;;;;;;;;;;;;;;;;;350108;28;908;-64
2022/09/21 00:13:50;;;;;;;;;;;;;;;;;;350060;28;952;-64
2022/09/21 00:14:11;;;;;;;;;;;;;;;;;;350096;28;949;-64
2022/09/21 00:14:21;;;;;;;;;;;;;;;;;;350099;28;905;-64
2022/09/21 00:14:32;;;;;;;;;;;;;;;;;;350095;28;991;-64
2022/09/21 00:14:42;;;;;;;;;;;;;;;;;;350120;28;908;-64
2022/09/21 00:14:52;;;;;;;;;;;;;;;;;;350131;28;762;-64
2022/09/21 00:15:06;;;;;;;;;;;;;;;;;;350095;28;808;-64
2022/09/21 00:15:17;;;;;;;;;;;;;;;;;;350021;28;948;-64
2022/09/21 00:15:28;;;;;;;;;;;;;;;;;;350017;28;853;-64
2022/09/21 00:15:38;;;;;;;;;;;;;;;;;;350149;28;774;-64
2022/09/21 00:15:49;;;;;;;;;;;;;;;;;;350100;28;955;-64
2022/09/21 00:15:59;;;;;;;;;;;;;;;;;;350134;28;897;-64
2022/09/21 00:16:10;;;;;;;;;;;;;;;;;;350082;28;944;-64
2022/09/21 00:16:20;;;;;;;;;;;;;;;;;;350108;28;840;-64
2022/09/21 00:16:31;;;;;;;;;;;;;;;;;;350050;28;920;-64
2022/09/21 00:16:42;;;;;;;;;;;;;;;;;;349108;28;1500;-64
2022/09/21 00:16:52;;;;;;;;;;;;;;;;;;350111;28;952;-64
2022/09/21 00:17:02;;;;;;;;;;;;;;;;;;350087;28;909;-64
2022/09/21 00:17:12;;;;;;;;;;;;;;;;;;350091;28;908;-64
2022/09/21 00:17:23;;;;;;;;;;;;;;;;;;350071;28;940;-64
2022/09/21 00:17:33;;;;;;;;;;;;;;;;;;349830;28;1149;-64
2022/09/21 00:17:44;;;;;;;;;;;;;;;;;;349967;28;1026;-64
2022/09/21 00:17:56;;;;;;;;;;;;;;;;;;350154;28;806;-64
2022/09/21 00:18:06;;;;;;;;;;;;;;;;;;350088;28;916;-64
2022/09/21 00:18:16;;;;;;;;;;;;;;;;;;350076;28;801;-64
2022/09/21 00:18:26;;;;;;;;;;;;;;;;;;350060;28;795;-64
2022/09/21 00:18:37;;;;;;;;;;;;;;;;;;350031;28;918;-64
2022/09/21 00:18:47;;;;;;;;;;;;;;;;;;348422;28;1391;-64
2022/09/21 00:18:58;;;;;;;;;;;;;;;;;;348667;28;913;-64
2022/09/21 00:19:08;;;;;;;;;;;;;;;;;;348732;28;925;-64
2022/09/21 00:19:18;;;;;;;;;;;;;;;;;;348668;28;909;-64
2022/09/21 00:19:29;;;;;;;;;;;;;;;;;;348672;28;1064;-64
2022/09/21 00:19:39;;;;;;;;;;;;;;;;;;348614;28;913;-64
2022/09/21 00:19:49;;;;;;;;;;;;;;;;;;348755;28;956;-64
2022/09/21 00:20:01;;;;;;;;;;;;;;;;;;348642;28;920;-64
2022/09/21 00:20:11;;;;;;;;;;;;;;;;;;348659;28;770;-64
2022/09/21 00:20:22;;;;;;;;;;;;;;;;;;348724;28;1059;-64
2022/09/21 00:20:32;;;;;;;;;;;;;;;;;;348879;28;1366;-64
2022/09/21 00:20:42;;;;;;;;;;;;;;;;;;350071;28;900;-64
2022/09/21 00:20:52;;;;;;;;;;;;;;;;;;350084;28;959;-64
2022/09/21 00:21:07;;;;;;;;;;;;;;;;;;350767;28;1267;-64
2022/09/21 00:21:18;;;;;;;;;;;;;;;;;;351500;28;1403;-64
2022/09/21 00:21:28;;;;;;;;;;;;;;;;;;351499;28;928;-64
2022/09/21 00:21:39;;;;;;;;;;;;;;;;;;351391;28;980;-64
2022/09/21 00:21:52;;;;;;;;;;;;;;;;;;351460;28;867;-64
2022/09/21 00:22:03;;;;;;;;;;;;;;;;;;351494;28;959;-64
2022/09/21 00:22:13;;;;;;;;;;;;;;;;;;351393;28;1000;-64
2022/09/21 00:22:23;;;;;;;;;;;;;;;;;;351496;28;836;-64
2022/09/21 00:22:34;;;;;;;;;;;;;;;;;;351438;28;979;-65
2022/09/21 00:22:45;;;;;;;;;;;;;;;;;;351423;28;905;-64
2022/09/21 00:22:55;;;;;;;;;;;;;;;;;;351455;28;959;-64
2022/09/21 00:23:06;;;;;;;;;;;;;;;;;;351462;28;912;-64
2022/09/21 00:23:16;;;;;;;;;;;;;;;;;;351438;28;784;-64
2022/09/21 00:23:26;;;;;;;;;;;;;;;;;;351415;28;892;-64
2022/09/21 00:23:36;;;;;;;;;;;;;;;;;;351545;28;801;-65
2022/09/21 00:23:47;;;;;;;;;;;;;;;;;;351376;28;912;-64
2022/09/21 00:23:58;;;;;;;;;;;;;;;;;;349549;28;1883;-64
2022/09/21 00:24:08;;;;;;;;;;;;;;;;;;349893;28;929;-64
2022/09/21 00:24:18;;;;;;;;;;;;;;;;;;350047;28;960;-63
2022/09/21 00:24:29;;;;;;;;;;;;;;;;;;350110;28;782;-64
2022/09/21 00:24:39;;;;;;;;;;;;;;;;;;350045;28;905;-64
2022/09/21 00:24:49;;;;;;;;;;;;;;;;;;350021;28;964;-64
2022/09/21 00:25:02;;;;;;;;;;;;;;;;;;350046;28;810;-64
2022/09/21 00:25:13;;;;;;;;;;;;;;;;;;350080;28;972;-64
2022/09/21 00:25:23;;;;;;;;;;;;;;;;;;350038;28;1011;-64
2022/09/21 00:25:34;;;;;;;;;;;;;;;;;;350017;28;984;-64
2022/09/21 00:25:44;;;;;;;;;;;;;;;;;;350140;28;921;-64
2022/09/21 00:26:03;;;;;;;;;;;;;;;;;;350001;28;867;-64
2022/09/21 00:26:15;;;;;;;;;;;;;;;;;;350020;28;991;-64
2022/09/21 00:26:26;;;;;;;;;;;;;;;;;;349983;28;905;-64
2022/09/21 00:26:36;;;;;;;;;;;;;;;;;;350044;28;980;-64
2022/09/21 00:26:46;;;;;;;;;;;;;;;;;;350092;28;976;-64
2022/09/21 00:26:57;;;;;;;;;;;;;;;;;;350105;28;833;-64
2022/09/21 00:27:07;;;;;;;;;;;;;;;;;;350034;28;1039;-64
2022/09/21 00:27:17;;;;;;;;;;;;;;;;;;350084;28;976;-64
2022/09/21 00:27:28;;;;;;;;;;;;;;;;;;350023;28;912;-64
2022/09/21 00:27:39;;;;;;;;;;;;;;;;;;348348;28;1811;-64
2022/09/21 00:27:50;;;;;;;;;;;;;;;;;;348668;28;850;-64
2022/09/21 00:28:00;;;;;;;;;;;;;;;;;;348717;28;925;-64
2022/09/21 00:28:11;;;;;;;;;;;;;;;;;;348710;28;802;-64
2022/09/21 00:28:22;;;;;;;;;;;;;;;;;;349691;28;1245;-64
2022/09/21 00:28:32;;;;;;;;;;;;;;;;;;349967;28;989;-64
2022/09/21 00:28:43;;;;;;;;;;;;;;;;;;350055;28;948;-64
2022/09/21 00:28:54;;;;;;;;;;;;;;;;;;350093;28;933;-64
2022/09/21 00:29:05;;;;;;;;;;;;;;;;;;350014;28;929;-63
2022/09/21 00:29:16;;;;;;;;;;;;;;;;;;350041;28;991;-64
2022/09/21 00:29:26;;;;;;;;;;;;;;;;;;350066;28;927;-64
2022/09/21 00:29:36;;;;;;;;;;;;;;;;;;349994;28;965;-64
2022/09/21 00:29:47;;;;;;;;;;;;;;;;;;350105;28;920;-64
2022/09/21 00:30:00;;;;;;;;;;;;;;;;;;350042;28;1387;-64
2022/09/21 00:30:10;;;;;;;;;;;;;;;;;;350029;28;991;-64
2022/09/21 00:30:21;;;;;;;;;;;;;;;;;;350075;28;915;-64
2022/09/21 00:30:31;;;;;;;;;;;;;;;;;;349269;28;1503;-64
2022/09/21 00:30:41;;;;;;;;;;;;;;;;;;349957;28;1056;-64
2022/09/21 00:30:51;;;;;;;;;;;;;;;;;;350087;28;821;-64
2022/09/21 00:31:03;;;;;;;;;;;;;;;;;;350096;28;900;-64
2022/09/21 00:31:16;;;;;;;;;;;;;;;;;;349852;28;1247;-64
2022/09/21 00:31:28;;;;;;;;;;;;;;;;;;350023;27;952;-64
2022/09/21 00:31:38;;;;;;;;;;;;;;;;;;350107;28;845;-64
2022/09/21 00:31:48;;;;;;;;;;;;;;;;;;350027;28;814;-64
2022/09/21 00:31:59;;;;;;;;;;;;;;;;;;350023;28;905;-64
2022/09/21 00:32:09;;;;;;;;;;;;;;;;;;350008;28;991;-65
2022/09/21 00:32:19;;;;;;;;;;;;;;;;;;349994;28;928;-64
2022/09/21 00:32:30;;;;;;;;;;;;;;;;;;350011;28;932;-64
2022/09/21 00:32:40;;;;;;;;;;;;;;;;;;350078;28;924;-64
2022/09/21 00:32:52;;;;;;;;;;;;;;;;;;349955;28;956;-64
2022/09/21 00:33:02;;;;;;;;;;;;;;;;;;350024;28;916;-64
2022/09/21 00:33:13;;;;;;;;;;;;;;;;;;350079;28;851;-64
2022/09/21 00:33:24;;;;;;;;;;;;;;;;;;350074;28;861;-64
2022/09/21 00:33:34;;;;;;;;;;;;;;;;;;349955;28;1147;-64
2022/09/21 00:33:44;;;;;;;;;;;;;;;;;;350062;28;897;-64
2022/09/21 00:33:54;;;;;;;;;;;;;;;;;;350057;28;999;-64
2022/09/21 00:34:06;;;;;;;;;;;;;;;;;;350076;28;888;-64
2022/09/21 00:34:17;;;;;;;;;;;;;;;;;;349997;28;956;-64
2022/09/21 00:34:27;;;;;;;;;;;;;;;;;;350026;28;967;-64
2022/09/21 00:34:37;;;;;;;;;;;;;;;;;;350037;28;932;-64
2022/09/21 00:34:47;;;;;;;;;;;;;;;;;;350045;28;921;-64
2022/09/21 00:34:59;;;;;;;;;;;;;;;;;;350048;28;782;-64
2022/09/21 00:35:09;;;;;;;;;;;;;;;;;;350029;28;1042;-64
2022/09/21 00:35:19;;;;;;;;;;;;;;;;;;350075;28;928;-64
2022/09/21 00:35:29;;;;;;;;;;;;;;;;;;350061;28;1008;-64
2022/09/21 00:35:40;;;;;;;;;;;;;;;;;;350002;28;956;-64
2022/09/21 00:35:50;;;;;;;;;;;;;;;;;;350039;28;840;-65
2022/09/21 00:36:02;;;;;;;;;;;;;;;;;;350091;28;881;-64
2022/09/21 00:36:13;;;;;;;;;;;;;;;;;;349960;28;968;-64
2022/09/21 00:36:24;;;;;;;;;;;;;;;;;;350017;28;991;-64
2022/09/21 00:36:34;;;;;;;;;;;;;;;;;;349981;28;1861;-64
2022/09/21 00:36:45;;;;;;;;;;;;;;;;;;350081;28;888;-64
2022/09/21 00:36:55;;;;;;;;;;;;;;;;;;350098;28;921;-64
2022/09/21 00:37:05;;;;;;;;;;;;;;;;;;349985;28;913;-64
2022/09/21 00:37:16;;;;;;;;;;;;;;;;;;350070;28;1008;-64
2022/09/21 00:37:26;;;;;;;;;;;;;;;;;;350045;28;1385;-64
2022/09/21 00:37:36;;;;;;;;;;;;;;;;;;350060;28;968;-64
2022/09/21 00:37:46;;;;;;;;;;;;;;;;;;350030;28;920;-65
2022/09/21 00:37:59;;;;;;;;;;;;;;;;;;350061;28;920;-64
2022/09/21 00:38:09;;;;;;;;;;;;;;;;;;350050;28;916;-64
2022/09/21 00:38:20;;;;;;;;;;;;;;;;;;350025;28;904;-64
2022/09/21 00:38:30;;;;;;;;;;;;;;;;;;349980;28;900;-64
2022/09/21 00:38:41;;;;;;;;;;;;;;;;;;350037;28;924;-65
2022/09/21 00:38:52;;;;;;;;;;;;;;;;;;350014;28;987;-64
2022/09/21 00:39:02;;;;;;;;;;;;;;;;;;350007;28;987;-64
2022/09/21 00:39:13;;;;;;;;;;;;;;;;;;350075;28;968;-65
2022/09/21 00:39:23;;;;;;;;;;;;;;;;;;350062;28;980;-64
2022/09/21 00:39:33;;;;;;;;;;;;;;;;;;349972;28;916;-64
2022/09/21 00:39:44;;;;;;;;;;;;;;;;;;350029;28;897;-64
2022/09/21 00:39:54;;;;;;;;;;;;;;;;;;350011;28;825;-64
2022/09/21 00:40:05;;;;;;;;;;;;;;;;;;350035;28;873;-64
2022/09/21 00:40:15;;;;;;;;;;;;;;;;;;349830;28;1276;-64
2022/09/21 00:40:26;;;;;;;;;;;;;;;;;;349910;28;964;-64
2022/09/21 00:40:36;;;;;;;;;;;;;;;;;;349874;28;857;-64
2022/09/21 00:40:46;;;;;;;;;;;;;;;;;;349928;28;798;-64
2022/09/21 00:40:57;;;;;;;;;;;;;;;;;;349967;28;967;-64
2022/09/21 00:41:08;;;;;;;;;;;;;;;;;;349908;28;892;-64
2022/09/21 00:41:18;;;;;;;;;;;;;;;;;;349898;28;1095;-64
2022/09/21 00:41:30;;;;;;;;;;;;;;;;;;349972;28;845;-64
2022/09/21 00:41:40;;;;;;;;;;;;;;;;;;349904;28;997;-64
2022/09/21 00:41:52;;;;;;;;;;;;;;;;;;349659;28;1442;-64
2022/09/21 00:42:07;;;;;;;;;;;;;;;;;;349565;28;1527;-64
2022/09/21 00:42:22;;;;;;;;;;;;;;;;;;350104;28;936;-64
2022/09/21 00:42:33;;;;;;;;;;;;;;;;;;350010;28;960;-64
2022/09/21 00:42:43;;;;;;;;;;;;;;;;;;349987;28;976;-64
2022/09/21 00:43:09;;;;;;;;;;;;;;;;;;350023;28;913;-64
2022/09/21 00:43:19;;;;;;;;;;;;;;;;;;350068;28;912;-64
2022/09/21 00:43:32;;;;;;;;;;;;;;;;;;350017;28;924;-64
2022/09/21 00:43:46;;;;;;;;;;;;;;;;;;350027;28;900;-64
2022/09/21 00:44:15;;;;;;;;;;;;;;;;;;350061;28;921;-64
2022/09/21 00:44:28;;;;;;;;;;;;;;;;;;349991;28;912;-64
2022/09/21 00:44:38;;;;;;;;;;;;;;;;;;349960;28;999;-64
2022/09/21 00:44:48;;;;;;;;;;;;;;;;;;350053;28;988;-65
2022/09/21 00:44:59;;;;;;;;;;;;;;;;;;349980;28;913;-64
2022/09/21 00:45:19;;;;;;;;;;;;;;;;;;349994;28;921;-64
2022/09/21 00:45:30;;;;;;;;;;;;;;;;;;350057;28;916;-64
2022/09/21 00:45:42;;;;;;;;;;;;;;;;;;350075;28;1050;-64
2022/09/21 00:46:03;;;;;;;;;;;;;;;;;;350025;28;1093;-64
2022/09/21 00:46:26;;;;;;;;;;;;;;;;;;349997;28;917;-64
2022/09/21 00:46:37;;;;;;;;;;;;;;;;;;349985;28;917;-64
2022/09/21 00:46:49;;;;;;;;;;;;;;;;;;350015;28;979;-64
2022/09/21 00:47:08;;;;;;;;;;;;;;;;;;349986;28;987;-64
2022/09/21 00:47:32;;;;;;;;;;;;;;;;;;348641;28;972;-64
2022/09/21 00:47:44;;;;;;;;;;;;;;;;;;348672;28;881;-64
2022/09/21 00:48:02;;;;;;;;;;;;;;;;;;348650;28;897;-64
2022/09/21 00:48:14;;;;;;;;;;;;;;;;;;348669;28;861;-64
2022/09/21 00:48:24;;;;;;;;;;;;;;;;;;348696;28;913;-64
2022/09/21 00:48:34;;;;;;;;;;;;;;;;;;348751;28;853;-64
2022/09/21 00:48:45;;;;;;;;;;;;;;;;;;348566;28;929;-64
2022/09/21 00:48:56;;;;;;;;;;;;;;;;;;348646;28;964;-64
2022/09/21 00:49:07;;;;;;;;;;;;;;;;;;348682;28;922;-64
2022/09/21 00:49:19;;;;;;;;;;;;;;;;;;348633;28;817;-64
2022/09/21 00:49:30;;;;;;;;;;;;;;;;;;348688;28;929;-64
2022/09/21 00:49:42;;;;;;;;;;;;;;;;;;348646;28;967;-64
2022/09/21 00:49:54;;;;;;;;;;;;;;;;;;348556;28;895;-64
2022/09/21 00:50:10;;;;;;;;;;;;;;;;;;348708;28;805;-64
2022/09/21 00:50:23;;;;;;;;;;;;;;;;;;348626;28;928;-64
2022/09/21 00:50:34;;;;;;;;;;;;;;;;;;348653;28;933;-64
2022/09/21 00:50:49;;;;;;;;;;;;;;;;;;348648;28;786;-64
2022/09/21 00:51:03;;;;;;;;;;;;;;;;;;348644;28;945;-64
2022/09/21 00:51:13;;;;;;;;;;;;;;;;;;348597;28;861;-65
2022/09/21 00:51:24;;;;;;;;;;;;;;;;;;348702;28;909;-64
2022/09/21 00:51:35;;;;;;;;;;;;;;;;;;348651;28;794;-64
2022/09/21 00:51:46;;;;;;;;;;;;;;;;;;348623;28;980;-64
2022/09/21 00:51:57;;;;;;;;;;;;;;;;;;348644;28;905;-64
2022/09/21 00:52:09;;;;;;;;;;;;;;;;;;348696;28;912;-64
2022/09/21 00:52:21;;;;;;;;;;;;;;;;;;348591;28;1126;-64
2022/09/21 00:52:33;;;;;;;;;;;;;;;;;;348662;28;967;-64
2022/09/21 00:52:46;;;;;;;;;;;;;;;;;;348617;28;925;-65
2022/09/21 00:52:57;;;;;;;;;;;;;;;;;;348549;28;914;-63
2022/09/21 00:53:07;;;;;;;;;;;;;;;;;;348693;28;921;-64
2022/09/21 00:53:18;;;;;;;;;;;;;;;;;;348593;28;925;-64
2022/09/21 00:53:28;;;;;;;;;;;;;;;;;;348604;28;1903;-64
2022/09/21 00:53:39;;;;;;;;;;;;;;;;;;348628;28;858;-64
2022/09/21 00:53:53;;;;;;;;;;;;;;;;;;348683;28;928;-64
2022/09/21 00:54:07;;;;;;;;;;;;;;;;;;349606;28;1278;-64
2022/09/21 00:54:24;;;;;;;;;;;;;;;;;;349943;28;967;-64
2022/09/21 00:54:38;;;;;;;;;;;;;;;;;;350001;28;1120;-64
2022/09/21 00:54:51;;;;;;;;;;;;;;;;;;350028;28;1230;-64
2022/09/21 00:55:19;;;;;;;;;;;;;;;;;;349970;28;897;-64
2022/09/21 00:55:36;;;;;;;;;;;;;;;;;;349986;28;959;-64
2022/09/21 00:55:48;;;;;;;;;;;;;;;;;;349992;28;917;-64
2022/09/21 00:56:00;;;;;;;;;;;;;;;;;;349213;28;1403;-64
2022/09/21 00:56:11;;;;;;;;;;;;;;;;;;348692;28;873;-64
2022/09/21 00:56:21;;;;;;;;;;;;;;;;;;348654;28;887;-64
2022/09/21 00:56:32;;;;;;;;;;;;;;;;;;348681;28;844;-64
2022/09/21 00:56:43;;;;;;;;;;;;;;;;;;348666;28;897;-64
2022/09/21 00:56:54;;;;;;;;;;;;;;;;;;348696;28;972;-64
2022/09/21 00:57:04;;;;;;;;;;;;;;;;;;348535;28;983;-64
2022/09/21 00:57:19;;;;;;;;;;;;;;;;;;348627;28;917;-64
2022/09/21 00:57:30;;;;;;;;;;;;;;;;;;348680;28;849;-64
2022/09/21 00:57:41;;;;;;;;;;;;;;;;;;348663;28;908;-64
2022/09/21 00:57:54;;;;;;;;;;;;;;;;;;348653;28;889;-64
2022/09/21 00:58:08;;;;;;;;;;;;;;;;;;348566;28;971;-64
2022/09/21 00:58:20;;;;;;;;;;;;;;;;;;348596;28;973;-64
2022/09/21 00:58:37;;;;;;;;;;;;;;;;;;348568;28;964;-64
2022/09/21 00:58:49;;;;;;;;;;;;;;;;;;348650;28;854;-64
2022/09/21 00:58:59;;;;;;;;;;;;;;;;;;348589;28;764;-64
2022/09/21 00:59:12;;;;;;;;;;;;;;;;;;348600;28;960;-64
2022/09/21 00:59:22;;;;;;;;;;;;;;;;;;348618;28;781;-64
2022/09/21 00:59:34;;;;;;;;;;;;;;;;;;348675;28;770;-64
2022/09/21 00:59:44;;;;;;;;;;;;;;;;;;348698;28;837;-64
2022/09/21 00:59:56;;;;;;;;;;;;;;;;;;348593;28;893;-64
2022/09/21 01:00:07;;;;;;;;;;;;;;;;;;348592;28;957;-64
2022/09/21 01:00:18;;;;;;;;;;;;;;;;;;348638;28;1043;-64
2022/09/21 01:00:28;;;;;;;;;;;;;;;;;;348619;28;967;-64
2022/09/21 01:00:39;;;;;;;;;;;;;;;;;;348641;28;1132;-63
2022/09/21 01:00:49;;;;;;;;;;;;;;;;;;348714;28;793;-64
2022/09/21 01:00:59;;;;;;;;;;;;;;;;;;348568;28;2015;-64
2022/09/21 01:01:11;;;;;;;;;;;;;;;;;;348624;28;814;-64
2022/09/21 01:01:22;;;;;;;;;;;;;;;;;;348641;28;853;-64
2022/09/21 01:01:33;;;;;;;;;;;;;;;;;;348572;28;1092;-64
2022/09/21 01:01:43;;;;;;;;;;;;;;;;;;348587;28;885;-64
2022/09/21 01:01:53;;;;;;;;;;;;;;;;;;348635;28;964;-64
2022/09/21 01:02:04;;;;;;;;;;;;;;;;;;348588;28;921;-64
2022/09/21 01:02:15;;;;;;;;;;;;;;;;;;348627;28;980;-64
2022/09/21 01:02:27;;;;;;;;;;;;;;;;;;348621;28;1035;-64
2022/09/21 01:02:37;;;;;;;;;;;;;;;;;;348602;28;1568;-64
2022/09/21 01:02:48;;;;;;;;;;;;;;;;;;348639;28;877;-64
2022/09/21 01:03:00;;;;;;;;;;;;;;;;;;348681;28;897;-64
2022/09/21 01:03:11;;;;;;;;;;;;;;;;;;348570;28;971;-64
2022/09/21 01:03:22;;;;;;;;;;;;;;;;;;348567;28;968;-64
2022/09/21 01:03:32;;;;;;;;;;;;;;;;;;348632;28;913;-64
2022/09/21 01:03:44;;;;;;;;;;;;;;;;;;348577;28;960;-64
2022/09/21 01:03:56;;;;;;;;;;;;;;;;;;348701;28;964;-64
2022/09/21 01:04:10;;;;;;;;;;;;;;;;;;348616;28;916;-64
2022/09/21 01:04:21;;;;;;;;;;;;;;;;;;348602;28;901;-64
2022/09/21 01:04:31;;;;;;;;;;;;;;;;;;348594;28;821;-64
2022/09/21 01:04:42;;;;;;;;;;;;;;;;;;348674;28;798;-64
2022/09/21 01:04:53;;;;;;;;;;;;;;;;;;348637;28;1011;-65
2022/09/21 01:05:05;;;;;;;;;;;;;;;;;;348624;28;798;-64
2022/09/21 01:05:15;;;;;;;;;;;;;;;;;;348503;28;1020;-64
2022/09/21 01:05:26;;;;;;;;;;;;;;;;;;348552;28;984;-64
2022/09/21 01:05:39;;;;;;;;;;;;;;;;;;348627;28;834;-64
2022/09/21 01:05:49;;;;;;;;;;;;;;;;;;348641;28;912;-64
2022/09/21 01:06:00;;;;;;;;;;;;;;;;;;348557;28;964;-64
2022/09/21 01:06:15;;;;;;;;;;;;;;;;;;348607;28;767;-64
2022/09/21 01:06:25;;;;;;;;;;;;;;;;;;348638;28;932;-64
2022/09/21 01:06:37;;;;;;;;;;;;;;;;;;348578;28;1004;-63
2022/09/21 01:06:47;;;;;;;;;;;;;;;;;;348632;28;964;-64
2022/09/21 01:06:59;;;;;;;;;;;;;;;;;;348696;28;976;-64
2022/09/21 01:07:11;;;;;;;;;;;;;;;;;;348558;28;980;-64
2022/09/21 01:07:24;;;;;;;;;;;;;;;;;;348638;28;913;-64
2022/09/21 01:07:37;;;;;;;;;;;;;;;;;;348549;28;889;-64
2022/09/21 01:07:48;;;;;;;;;;;;;;;;;;348632;28;873;-64
2022/09/21 01:08:00;;;;;;;;;;;;;;;;;;348636;28;929;-64
2022/09/21 01:08:11;;;;;;;;;;;;;;;;;;348622;28;940;-64
2022/09/21 01:08:24;;;;;;;;;;;;;;;;;;348634;28;877;-64
2022/09/21 01:08:36;;;;;;;;;;;;;;;;;;348647;28;917;-64
2022/09/21 01:08:51;;;;;;;;;;;;;;;;;;348620;28;809;-64
2022/09/21 01:09:02;;;;;;;;;;;;;;;;;;348662;28;926;-64
2022/09/21 01:09:12;;;;;;;;;;;;;;;;;;348634;28;913;-64
2022/09/21 01:09:23;;;;;;;;;;;;;;;;;;348633;28;980;-64
2022/09/21 01:09:33;;;;;;;;;;;;;;;;;;348550;28;861;-64
2022/09/21 01:09:45;;;;;;;;;;;;;;;;;;348604;28;870;-64
2022/09/21 01:09:58;;;;;;;;;;;;;;;;;;348705;28;989;-64
2022/09/21 01:10:11;;;;;;;;;;;;;;;;;;348592;28;865;-64
2022/09/21 01:10:22;;;;;;;;;;;;;;;;;;348606;28;797;-64
2022/09/21 01:10:45;;;;;;;;;;;;;;;;;;348687;28;987;-64
2022/09/21 01:11:11;;;;;;;;;;;;;;;;;;348635;28;929;-64
2022/09/21 01:11:33;;;;;;;;;;;;;;;;;;348611;28;897;-64
2022/09/21 01:11:53;;;;;;;;;;;;;;;;;;348583;28;838;-64
2022/09/21 01:12:23;;;;;;;;;;;;;;;;;;348634;28;971;-64
2022/09/21 01:13:00;;;;;;;;;;;;;;;;;;348585;28;830;-64
2022/09/21 01:13:33;;;;;;;;;;;;;;;;;;349302;28;923;-64
2022/09/21 01:14:02;;;;;;;;;;;;;;;;;;348595;28;1004;-64
2022/09/21 01:14:21;;;;;;;;;;;;;;;;;;348566;28;917;-64
2022/09/21 01:14:52;;;;;;;;;;;;;;;;;;348618;28;976;-64
2022/09/21 01:15:08;;;;;;;;;;;;;;;;;;348651;28;913;-64
2022/09/21 01:15:28;;;;;;;;;;;;;;;;;;348584;28;981;-64
2022/09/21 01:15:50;;;;;;;;;;;;;;;;;;348613;28;913;-64
2022/09/21 01:16:03;;;;;;;;;;;;;;;;;;348740;28;1567;-64
2022/09/21 01:16:17;;;;;;;;;;;;;;;;;;349989;28;840;-64
2022/09/21 01:16:38;;;;;;;;;;;;;;;;;;349899;28;917;-64
2022/09/21 01:17:03;;;;;;;;;;;;;;;;;;350008;28;849;-64
2022/09/21 01:17:17;;;;;;;;;;;;;;;;;;350009;28;900;-64
2022/09/21 01:17:33;;;;;;;;;;;;;;;;;;350003;28;980;-64
2022/09/21 01:17:49;;;;;;;;;;;;;;;;;;350015;28;979;-64
2022/09/21 01:18:10;;;;;;;;;;;;;;;;;;349931;28;829;-64
2022/09/21 01:18:28;;;;;;;;;;;;;;;;;;350053;28;972;-64
2022/09/21 01:18:47;;;;;;;;;;;;;;;;;;350024;28;909;-64
2022/09/21 01:18:59;;;;;;;;;;;;;;;;;;350038;28;989;-64
2022/09/21 01:19:28;;;;;;;;;;;;;;;;;;350015;28;960;-64
2022/09/21 01:19:57;;;;;;;;;;;;;;;;;;350013;28;812;-63
2022/09/21 01:20:19;;;;;;;;;;;;;;;;;;349902;28;924;-64
2022/09/21 01:20:44;;;;;;;;;;;;;;;;;;349956;28;849;-64
2022/09/21 01:20:57;;;;;;;;;;;;;;;;;;349967;28;992;-64
2022/09/21 01:21:09;;;;;;;;;;;;;;;;;;348595;28;775;-64
2022/09/21 01:21:21;;;;;;;;;;;;;;;;;;348695;28;912;-64
2022/09/21 01:21:38;;;;;;;;;;;;;;;;;;348634;28;826;-64
2022/09/21 01:22:04;;;;;;;;;;;;;;;;;;348599;28;920;-64
2022/09/21 01:22:37;;;;;;;;;;;;;;;;;;348608;28;952;-64
2022/09/21 01:23:00;;;;;;;;;;;;;;;;;;349835;28;964;-64
2022/09/21 01:23:22;;;;;;;;;;;;;;;;;;348106;28;1814;-64
2022/09/21 01:23:51;;;;;;;;;;;;;;;;;;348582;28;988;-65
2022/09/21 01:24:11;;;;;;;;;;;;;;;;;;348589;28;917;-64
2022/09/21 01:24:42;;;;;;;;;;;;;;;;;;348613;28;964;-64
2022/09/21 01:25:16;;;;;;;;;;;;;;;;;;348552;28;800;-64
2022/09/21 01:25:31;;;;;;;;;;;;;;;;;;348656;28;901;-64
2022/09/21 01:25:44;;;;;;;;;;;;;;;;;;348599;28;976;-64
2022/09/21 01:25:55;;;;;;;;;;;;;;;;;;348600;28;917;-64
2022/09/21 01:26:24;;;;;;;;;;;;;;;;;;348611;28;971;-63
2022/09/21 01:26:55;;;;;;;;;;;;;;;;;;348575;28;964;-64
2022/09/21 01:27:20;;;;;;;;;;;;;;;;;;348547;28;993;-64
2022/09/21 01:27:33;;;;;;;;;;;;;;;;;;348651;28;936;-64
2022/09/21 01:27:58;;;;;;;;;;;;;;;;;;348594;28;921;-64
2022/09/21 01:28:29;;;;;;;;;;;;;;;;;;348612;28;822;-64
2022/09/21 01:28:39;;;;;;;;;;;;;;;;;;348571;28;862;-64
2022/09/21 01:29:01;;;;;;;;;;;;;;;;;;348547;28;927;-64
2022/09/21 01:29:16;;;;;;;;;;;;;;;;;;348596;28;905;-64
2022/09/21 01:29:44;;;;;;;;;;;;;;;;;;348628;28;916;-64
2022/09/21 01:29:58;;;;;;;;;;;;;;;;;;348539;28;913;-64
2022/09/21 01:30:17;;;;;;;;;;;;;;;;;;348645;28;929;-64
2022/09/21 01:30:29;;;;;;;;;;;;;;;;;;348393;28;1137;-64
2022/09/21 01:30:41;;;;;;;;;;;;;;;;;;348536;28;1011;-64
2022/09/21 01:30:53;;;;;;;;;;;;;;;;;;348662;28;838;-64
2022/09/21 01:31:04;;;;;;;;;;;;;;;;;;348593;28;978;-64
2022/09/21 01:31:19;;;;;;;;;;;;;;;;;;348476;28;1173;-64
2022/09/21 01:31:37;;;;;;;;;;;;;;;;;;348607;28;957;-64
2022/09/21 01:31:51;;;;;;;;;;;;;;;;;;348615;28;878;-64
2022/09/21 01:32:08;;;;;;;;;;;;;;;;;;348703;28;920;-64
2022/09/21 01:32:24;;;;;;;;;;;;;;;;;;348542;28;937;-64